Time;durP1;ratioP1;P1;durP2;ratioP2;P2;SDS_P1;SDS_P2;PMS_P1;PMS_P2;Temp;Humidity;BMP_temperature;BMP_pressure;BME280_temperature;BME280_humidity;BME280_pressure;Samples;Min_cycle;Max_cycle;Signal;HPM_P1;HPM_P2
2021/06/05 00:02:29;;;;;;;0.50;0.50;;;;;;;-144.31;100.00;74415.34;5006283;28;20038;-75
2021/06/05 00:04:58;;;;;;;0.38;0.38;;;;;;;-144.31;100.00;74399.34;5007578;28;20068;-75
2021/06/05 00:07:25;;;;;;;0.43;0.43;;;;;;;-144.31;100.00;74387.38;5003969;28;20539;-75
2021/06/05 00:09:54;;;;;;;0.30;0.30;;;;;;;-144.31;100.00;74403.34;5003203;28;20496;-75
2021/06/05 00:12:24;;;;;;;0.30;0.30;;;;;;;-144.31;100.00;74399.34;5007669;28;20137;-75
2021/06/05 00:14:50;;;;;;;0.32;0.32;;;;;;;-144.31;100.00;74405.34;5023816;28;20407;-74
2021/06/05 00:17:15;;;;;;;0.50;0.50;;;;;;;-144.31;100.00;74403.34;5015802;28;20480;-75
2021/06/05 00:19:44;;;;;;;0.32;0.32;;;;;;;-144.31;100.00;74403.34;5006233;28;20155;-75
2021/06/05 00:22:10;;;;;;;0.25;0.25;;;;;;;-144.31;100.00;74405.34;5002636;28;20038;-75
2021/06/05 00:24:35;;;;;;;0.50;0.50;;;;;;;-144.31;100.00;74413.34;5007484;28;20030;-74
2021/06/05 00:27:01;;;;;;;0.40;0.40;;;;;;;-144.31;100.00;74423.31;5007783;28;20030;-74
2021/06/05 00:29:26;;;;;;;0.40;0.40;;;;;;;-144.31;100.00;74429.31;5006663;28;20041;-73
2021/06/05 00:31:52;;;;;;;0.38;0.38;;;;;;;-144.31;100.00;74427.31;5013728;28;20045;-75
2021/06/05 00:34:18;;;;;;;0.30;0.30;;;;;;;-144.31;100.00;74425.31;5007769;28;20029;-75
2021/06/05 00:36:43;;;;;;;0.30;0.30;;;;;;;-144.31;100.00;74433.31;5007786;28;20033;-75
2021/06/05 00:39:10;;;;;;;0.22;0.22;;;;;;;-144.31;100.00;74425.31;5007785;28;20519;-74
2021/06/05 00:41:37;;;;;;;0.43;0.40;;;;;;;-144.31;100.00;74425.31;5024079;28;20121;-75
2021/06/05 00:44:12;;;;;;;0.28;0.28;;;;;;;-144.31;100.00;74431.31;5007378;28;20038;-75
2021/06/05 00:46:41;;;;;;;;;;;;;;;-144.31;100.00;74431.31;5007747;28;20033;-75
2021/06/05 00:49:09;;;;;;;0.80;0.43;;;;;;;-144.31;100.00;74437.28;5004768;28;19916;-75
2021/06/05 00:51:42;;;;;;;0.40;0.40;;;;;;;-144.31;100.00;74439.28;5004144;28;20025;-75
2021/06/05 00:54:12;;;;;;;0.30;0.30;;;;;;;-144.31;100.00;74447.28;4989049;28;20042;-75
2021/06/05 00:56:47;;;;;;;0.38;0.38;;;;;;;-144.31;100.00;74447.28;5015144;28;20030;-75
2021/06/05 00:59:14;;;;;;;0.60;0.35;;;;;;;-144.31;100.00;74455.25;5007257;28;20095;-75
2021/06/05 01:01:39;;;;;;;0.30;0.30;;;;;;;-144.31;100.00;74457.25;5006846;28;20034;-75
2021/06/05 01:04:06;;;;;;;0.30;0.30;;;;;;;-144.31;100.00;74461.25;5007344;28;20064;-75
2021/06/05 01:06:42;;;;;;;0.30;0.30;;;;;;;-144.31;100.00;74469.25;5007297;28;20128;-74
2021/06/05 01:09:22;;;;;;;0.30;0.30;;;;;;;-144.31;100.00;74483.22;5005892;28;20235;-75
2021/06/05 01:11:56;;;;;;;0.28;0.28;;;;;;;-144.31;100.00;74489.22;5008858;28;20038;-75
2021/06/05 01:14:42;;;;;;;0.40;0.40;;;;;;;-144.31;100.00;74489.22;4983761;28;20102;-75
2021/06/05 01:17:18;;;;;;;0.20;0.20;;;;;;;-144.31;100.00;74497.19;5006286;28;20041;-75
2021/06/05 01:19:50;;;;;;;0.30;0.30;;;;;;;-144.31;100.00;74507.19;4984287;28;20338;-75
2021/06/05 01:22:52;;;;;;;0.22;0.22;;;;;;;-144.31;100.00;74509.19;4990726;28;20037;-75
2021/06/05 01:25:36;;;;;;;0.30;0.30;;;;;;;-144.31;100.00;74515.16;5002336;28;20060;-75
2021/06/05 01:28:12;;;;;;;0.20;0.20;;;;;;;-144.31;100.00;74521.16;5003981;28;20408;-74
2021/06/05 01:30:43;;;;;;;0.40;0.40;;;;;;;-144.31;100.00;74527.16;5006798;28;20068;-75
2021/06/05 01:33:11;;;;;;;0.20;0.20;;;;;;;-144.31;100.00;74533.13;5007094;28;20026;-76
2021/06/05 01:35:38;;;;;;;0.30;0.30;;;;;;;-144.31;100.00;74547.13;5006599;28;20108;-75
2021/06/05 01:38:10;;;;;;;0.30;0.30;;;;;;;-144.31;100.00;74553.09;5003050;28;20030;-74
2021/06/05 01:40:37;;;;;;;0.30;0.30;;;;;;;-144.31;100.00;74563.09;5005073;28;20033;-75
2021/06/05 01:43:09;;;;;;;0.30;0.30;;;;;;;-144.31;100.00;74577.06;5006829;28;20046;-74
2021/06/05 01:45:41;;;;;;;0.38;0.38;;;;;;;-144.31;100.00;74591.03;4986536;28;20088;-74
2021/06/05 01:48:08;;;;;;;0.40;0.40;;;;;;;-144.31;100.00;74593.03;5004282;28;20069;-74
2021/06/05 01:50:41;;;;;;;0.30;0.30;;;;;;;-144.31;100.00;74607.03;5004935;28;20479;-74
2021/06/05 01:53:22;;;;;;;0.60;0.60;;;;;;;-144.31;100.00;74585.06;5004350;28;20447;-75
2021/06/05 01:56:11;;;;;;;0.40;0.40;;;;;;;-144.31;100.00;74601.03;5006045;28;20041;-75
2021/06/05 01:58:40;;;;;;;0.28;0.28;;;;;;;-144.31;100.00;74617.00;5018080;28;20121;-75
2021/06/05 02:01:13;;;;;;;0.30;0.30;;;;;;;-144.31;100.00;74636.97;5007194;28;20049;-75
2021/06/05 02:03:42;;;;;;;0.35;0.35;;;;;;;-144.31;100.00;74650.94;5008330;28;20037;-74
2021/06/05 02:06:21;;;;;;;0.30;0.30;;;;;;;-144.31;100.00;74662.94;5003089;28;20125;-73
2021/06/05 02:08:47;;;;;;;0.30;0.30;;;;;;;-144.31;100.00;74660.94;5006379;28;20029;-75
2021/06/05 02:11:16;;;;;;;0.40;0.40;;;;;;;-144.31;100.00;74664.94;5014102;28;20026;-75
2021/06/05 02:14:23;;;;;;;0.35;0.35;;;;;;;-144.31;100.00;74668.91;5006587;28;20061;-74
2021/06/05 02:16:53;;;;;;;0.30;0.30;;;;;;;-144.31;100.00;74674.91;4956233;28;20053;-75
2021/06/05 02:19:22;;;;;;;0.38;0.38;;;;;;;-144.31;100.00;74680.91;5002961;28;20034;-74
2021/06/05 02:22:04;;;;;;;0.30;0.30;;;;;;;-144.31;100.00;74684.91;4995250;28;20034;-75
2021/06/05 02:24:36;;;;;;;0.30;0.30;;;;;;;-144.31;100.00;74682.91;5006398;28;20030;-75
2021/06/05 02:27:03;;;;;;;0.30;0.30;;;;;;;-144.31;100.00;74682.91;5007721;28;20037;-74
2021/06/05 02:29:41;;;;;;;0.28;0.28;;;;;;;-144.31;100.00;74688.88;5002911;28;20037;-73
2021/06/05 02:32:12;;;;;;;0.30;0.30;;;;;;;-144.31;100.00;74694.88;5008055;28;20033;-74
2021/06/05 02:34:39;;;;;;;0.50;0.50;;;;;;;-144.31;100.00;74700.88;5005334;28;20523;-75
2021/06/05 02:37:08;;;;;;;0.30;0.30;;;;;;;-144.31;98.77;74702.88;5006271;28;20042;-75
2021/06/05 02:39:39;;;;;;;0.20;0.20;;;;;;;-144.31;97.41;74702.88;5002370;28;20037;-75
2021/06/05 02:42:10;;;;;;;0.30;0.30;;;;;;;-144.31;95.90;74704.88;5014257;28;20033;-75
2021/06/05 02:44:43;;;;;;;0.38;0.38;;;;;;;-144.31;68.86;74710.84;5002674;28;20037;-75
2021/06/05 02:47:10;;;;;;;0.30;0.30;;;;;;;-144.31;68.90;74722.84;5014098;28;20058;-75
2021/06/05 02:49:39;;;;;;;0.30;0.30;;;;;;;-144.31;68.94;74724.84;5007552;28;20048;-73
2021/06/05 02:52:09;;;;;;;0.40;0.40;;;;;;;-144.31;68.96;74728.84;5006583;28;20029;-75
2021/06/05 02:54:39;;;;;;;0.47;0.47;;;;;;;-144.31;68.99;74734.81;5006076;28;20046;-74
2021/06/05 02:57:08;;;;;;;0.40;0.40;;;;;;;-144.31;68.97;74744.81;5002327;28;20038;-75
2021/06/05 02:59:40;;;;;;;0.50;0.50;;;;;;;-144.31;68.96;74738.81;5002640;28;20038;-74
2021/06/05 03:02:07;;;;;;;0.50;0.50;;;;;;;-144.31;68.96;74748.81;5010607;28;20499;-74
2021/06/05 03:04:32;;;;;;;0.57;0.57;;;;;;;-144.31;68.93;74744.81;5009674;28;20052;-74
2021/06/05 03:06:58;;;;;;;0.30;0.30;;;;;;;-144.31;68.93;74744.81;5018082;28;20037;-74
2021/06/05 03:09:23;;;;;;;0.40;0.40;;;;;;;-144.31;68.93;74748.81;5018013;28;20061;-75
2021/06/05 03:11:51;;;;;;;0.30;0.30;;;;;;;-144.31;68.93;74758.78;5009706;28;20022;-75
2021/06/05 03:14:19;;;;;;;0.40;0.40;;;;;;;-144.31;68.95;74764.78;5009645;28;20107;-75
2021/06/05 03:16:49;;;;;;;0.47;0.47;;;;;;;-144.31;68.93;74754.78;5007856;28;20029;-75
2021/06/05 03:19:17;;;;;;;0.50;0.50;;;;;;;-144.31;68.96;74756.78;5009336;28;20446;-74
2021/06/05 03:21:45;;;;;;;0.55;0.55;;;;;;;-144.31;68.96;74754.78;5009082;28;20519;-75
2021/06/05 03:24:31;;;;;;;0.32;0.32;;;;;;;-144.31;68.98;74752.78;5008562;28;20419;-75
2021/06/05 03:27:00;;;;;;;0.30;0.30;;;;;;;-144.31;68.99;74752.78;5008806;28;20041;-75
2021/06/05 03:29:27;;;;;;;0.35;0.35;;;;;;;-144.31;69.02;74752.78;5009249;28;20064;-75
2021/06/05 03:31:59;;;;;;;0.30;0.30;;;;;;;-144.31;69.04;74744.81;5008105;28;20057;-75
2021/06/05 03:34:28;;;;;;;0.30;0.30;;;;;;;-144.31;69.10;74748.81;5008803;28;20037;-75
2021/06/05 03:36:56;;;;;;;0.40;0.40;;;;;;;-144.31;69.14;74750.78;5008674;28;20030;-75
2021/06/05 03:39:25;;;;;;;0.40;0.40;;;;;;;-144.31;69.18;74746.81;5008738;28;20089;-75
2021/06/05 03:41:54;;;;;;;0.30;0.30;;;;;;;-144.31;69.22;74744.81;4988962;28;20069;-75
2021/06/05 03:44:22;;;;;;;0.50;0.50;;;;;;;-144.31;69.26;74738.81;5009085;28;20038;-75
2021/06/05 03:46:51;;;;;;;0.40;0.40;;;;;;;-144.31;69.29;74738.81;5009627;28;20029;-74
2021/06/05 03:49:16;;;;;;;0.32;0.32;;;;;;;-144.31;69.33;74736.81;5017429;28;20042;-75
2021/06/05 03:51:42;;;;;;;0.38;0.38;;;;;;;-144.31;69.33;74730.81;5009582;28;20137;-74
2021/06/05 03:54:10;;;;;;;0.35;0.35;;;;;;;-144.31;69.36;74722.84;5017039;28;20072;-75
2021/06/05 03:56:35;;;;;;;0.40;0.40;;;;;;;-144.31;69.37;74706.88;5008641;28;20025;-75
2021/06/05 03:59:02;;;;;;;0.40;0.40;;;;;;;-144.31;69.33;74694.88;5007978;28;20038;-75
2021/06/05 04:01:33;;;;;;;0.30;0.30;;;;;;;-144.31;69.29;74674.91;5008337;28;20049;-74
2021/06/05 04:03:59;;;;;;;0.30;0.30;;;;;;;-144.31;69.25;74664.94;5010031;28;20037;-74
2021/06/05 04:06:26;;;;;;;0.30;0.30;;;;;;;-144.31;69.19;74648.94;5009024;28;20045;-74
2021/06/05 04:08:55;;;;;;;0.40;0.40;;;;;;;-144.31;69.15;74636.97;5010191;28;20017;-75
2021/06/05 04:11:21;;;;;;;0.30;0.30;;;;;;;-144.31;69.09;74623.00;5007506;28;20419;-75
2021/06/05 04:13:47;;;;;;;0.30;0.30;;;;;;;-144.31;69.04;74603.03;5009839;28;20037;-75
2021/06/05 04:16:17;;;;;;;0.50;0.50;;;;;;;-144.31;68.99;74603.03;5007672;28;20290;-75
2021/06/05 04:18:42;;;;;;;0.30;0.30;;;;;;;-144.31;68.91;74595.03;5017007;28;20045;-74
2021/06/05 04:21:10;;;;;;;0.30;0.30;;;;;;;-144.31;68.82;74575.06;5009993;28;20084;-75
2021/06/05 04:23:36;;;;;;;0.30;0.30;;;;;;;-144.31;68.70;74551.09;5000579;28;20046;-73
2021/06/05 04:26:03;;;;;;;0.40;0.40;;;;;;;-144.31;68.59;74525.16;5004271;28;20049;-73
2021/06/05 04:28:30;;;;;;;0.40;0.40;;;;;;;-144.31;68.46;74499.19;5005954;28;20034;-75
2021/06/05 04:30:56;;;;;;;0.20;0.20;;;;;;;-144.31;68.36;74475.22;5004169;28;20510;-75
2021/06/05 04:33:24;;;;;;;0.30;0.30;;;;;;;-144.31;68.27;74453.25;5008062;28;20761;-75
2021/06/05 04:35:51;;;;;;;0.30;0.30;;;;;;;-144.31;68.22;74439.28;5007854;28;20026;-73
2021/06/05 04:38:18;;;;;;;0.35;0.35;;;;;;;-144.31;68.20;74429.31;5003306;28;20038;-75
2021/06/05 04:40:44;;;;;;;0.50;0.50;;;;;;;-144.31;68.17;74411.34;5009049;28;20034;-76
2021/06/05 04:43:11;;;;;;;0.35;0.35;;;;;;;-144.31;68.14;74387.38;5009230;28;20476;-75
2021/06/05 04:45:37;;;;;;;;;;;;;;;-144.31;68.15;74383.38;5016412;28;20057;-74
2021/06/05 04:48:05;;;;;;;0.30;0.30;;;;;;;-144.31;68.14;74375.41;4989152;28;19924;-75
2021/06/05 04:50:34;;;;;;;0.20;0.20;;;;;;;-144.31;68.14;74363.41;5006906;28;20029;-75
2021/06/05 04:53:00;;;;;;;0.73;0.30;;;;;;;-144.31;68.15;74351.44;5007674;28;20042;-75
2021/06/05 04:55:26;;;;;;;0.30;0.30;;;;;;;-144.31;68.18;74347.44;5007412;28;20052;-75
2021/06/05 04:57:54;;;;;;;0.30;0.30;;;;;;;-144.31;68.22;74317.50;5008931;28;20029;-75
2021/06/05 05:00:31;;;;;;;0.20;0.20;;;;;;;-144.31;68.28;74281.56;5009090;28;20034;-75
2021/06/05 05:02:58;;;;;;;0.30;0.30;;;;;;;-144.31;68.40;74279.56;5005204;28;20604;-75
2021/06/05 05:05:24;;;;;;;0.40;0.40;;;;;;;-144.31;68.52;74285.53;5008301;28;20121;-75
2021/06/05 05:07:51;;;;;;;0.30;0.30;;;;;;;-144.31;68.66;74259.59;5006655;28;20046;-75
2021/06/05 05:10:21;;;;;;;0.30;0.30;;;;;;;-144.31;68.80;74241.63;5007453;28;20033;-71
2021/06/05 05:12:46;;;;;;;0.28;0.28;;;;;;;-144.31;68.93;74229.63;5024807;28;20048;-70
2021/06/05 05:15:13;;;;;;;0.20;0.20;;;;;;;-144.31;69.09;74217.66;5011984;28;20109;-72
2021/06/05 05:17:39;;;;;;;0.30;0.30;;;;;;;-144.31;69.23;74207.69;5008921;28;20044;-72
2021/06/05 05:20:07;;;;;;;0.30;0.30;;;;;;;-144.31;69.38;74205.69;5008709;28;20034;-72
2021/06/05 05:22:33;;;;;;;0.30;0.30;;;;;;;-144.31;69.56;74199.69;5006487;28;20038;-72
2021/06/05 05:24:59;;;;;;;0.20;0.20;;;;;;;-144.31;69.74;74183.72;5007526;28;20030;-73
2021/06/05 05:27:24;;;;;;;0.30;0.30;;;;;;;-144.31;69.94;74179.72;5008617;28;20040;-76
2021/06/05 05:29:50;;;;;;;0.30;0.30;;;;;;;-144.31;70.06;74179.72;5007350;28;20041;-75
2021/06/05 05:32:15;;;;;;;0.25;0.25;;;;;;;-144.31;70.04;74179.72;5005677;28;20038;-76
2021/06/05 05:34:41;;;;;;;0.30;0.30;;;;;;;-144.31;70.10;74179.72;5015461;28;20028;-76
2021/06/05 05:37:09;;;;;;;0.30;0.30;;;;;;;-144.31;70.22;74179.72;5007180;28;20155;-75
2021/06/05 05:39:34;;;;;;;0.20;0.20;;;;;;;-144.31;70.48;74167.75;4990757;28;20038;-75
2021/06/05 05:42:03;;;;;;;0.30;0.30;;;;;;;-144.31;70.82;74161.75;5006764;28;20400;-75
2021/06/05 05:44:29;;;;;;;0.65;0.40;;;;;;;-144.31;70.94;74153.75;5008418;28;20174;-75
2021/06/05 05:46:54;;;;;;;0.32;0.32;;;;;;;-144.31;71.08;74153.75;5007706;28;20492;-75
2021/06/05 05:49:20;;;;;;;0.30;0.30;;;;;;;-144.31;71.27;74141.78;5014760;28;20088;-75
2021/06/05 05:51:46;;;;;;;0.20;0.20;;;;;;;-144.31;71.52;74127.81;5006733;28;20545;-73
2021/06/05 05:54:11;;;;;;;0.20;0.20;;;;;;;-144.31;71.85;74123.81;5023594;28;20037;-75
2021/06/05 05:56:37;;;;;;;0.30;0.30;;;;;;;-144.31;72.09;74107.84;5006530;28;20048;-75
2021/06/05 05:59:04;;;;;;;0.20;0.20;;;;;;;-144.31;72.28;74103.84;5014836;28;20037;-74
2021/06/05 06:01:31;;;;;;;0.35;0.35;;;;;;;-144.31;72.54;74111.84;4989851;28;20476;-76
2021/06/05 06:03:57;;;;;;;0.75;0.35;;;;;;;-144.31;72.71;74119.81;4989222;28;20052;-76
2021/06/05 06:06:29;;;;;;;0.20;0.20;;;;;;;-144.31;72.79;74109.84;5006211;28;20038;-75
2021/06/05 06:08:55;;;;;;;0.30;0.30;;;;;;;-144.31;72.83;74131.81;5007253;28;20049;-74
2021/06/05 06:11:21;;;;;;;0.20;0.20;;;;;;;-144.31;72.78;74107.84;5007335;28;20041;-75
2021/06/05 06:13:47;;;;;;;0.20;0.20;;;;;;;-144.31;72.77;74103.84;5016100;28;20026;-76
2021/06/05 06:16:15;;;;;;;0.20;0.20;;;;;;;-144.31;73.35;74141.78;5002632;28;20095;-73
2021/06/05 06:18:41;;;;;;;0.30;0.30;;;;;;;-144.31;73.27;74119.81;5004169;28;20450;-76
2021/06/05 06:21:10;;;;;;;0.30;0.30;;;;;;;-144.31;73.34;74129.81;5006474;28;20128;-75
2021/06/05 06:23:41;;;;;;;0.55;0.30;;;;;;;-144.31;73.59;74131.81;4998352;28;20575;-77
2021/06/05 06:26:14;;;;;;;0.30;0.30;;;;;;;-144.31;74.06;74137.78;5007807;28;20038;-74
2021/06/05 06:28:41;;;;;;;0.20;0.20;;;;;;;-144.31;73.93;74119.81;5006668;28;20034;-73
2021/06/05 06:31:09;;;;;;;0.20;0.20;;;;;;;-144.31;74.01;74103.84;5006384;28;20041;-76
2021/06/05 06:33:35;;;;;;;0.38;0.30;;;;;;;-144.31;74.16;74111.84;5007539;28;20572;-75
2021/06/05 06:36:02;;;;;;;0.30;0.30;;;;;;;-144.31;74.16;74099.84;5011479;28;20498;-75
2021/06/05 06:38:36;;;;;;;0.20;0.20;;;;;;;-144.31;74.46;74077.91;4990371;28;20034;-75
2021/06/05 06:41:04;;;;;;;0.30;0.30;;;;;;;-144.31;74.58;74059.94;5001878;28;20110;-75
2021/06/05 06:43:31;;;;;;;0.20;0.20;;;;;;;-144.31;74.58;74047.94;5011211;28;20404;-75
2021/06/05 06:46:13;;;;;;;0.30;0.30;;;;;;;-144.31;74.72;74067.91;5018084;28;20029;-74
2021/06/05 06:48:39;;;;;;;0.30;0.30;;;;;;;-144.31;74.75;74095.88;5009807;28;20034;-75
2021/06/05 06:51:06;;;;;;;0.20;0.20;;;;;;;-144.31;75.34;74059.94;5010553;28;20547;-74
2021/06/05 06:53:35;;;;;;;0.20;0.20;;;;;;;-144.31;76.01;74067.91;5009256;28;20113;-76
2021/06/05 06:56:00;;;;;;;0.10;0.10;;;;;;;-144.31;76.39;74031.97;5022366;28;20033;-75
2021/06/05 06:58:26;;;;;;;0.20;0.20;;;;;;;-144.31;77.16;73998.03;5009859;28;20401;-75
2021/06/05 07:00:52;;;;;;;0.20;0.20;;;;;;;-144.31;76.96;73996.03;5009583;28;20124;-74
2021/06/05 07:03:19;;;;;;;0.20;0.20;;;;;;;-144.31;76.65;73968.09;5009681;28;20036;-75
2021/06/05 07:05:45;;;;;;;0.20;0.20;;;;;;;-144.31;76.85;73932.16;5009400;28;20116;-75
2021/06/05 07:08:26;;;;;;;0.20;0.20;;;;;;;-144.31;77.37;73938.13;5007793;28;20550;-73
2021/06/05 07:10:58;;;;;;;0.30;0.30;;;;;;;-144.31;76.91;73924.16;5009537;28;20174;-73
2021/06/05 07:13:25;;;;;;;0.20;0.20;;;;;;;-144.31;76.93;73928.16;5009465;28;20163;-71
2021/06/05 07:15:52;;;;;;;0.20;0.20;;;;;;;-144.31;76.53;73944.13;5010929;28;20499;-72
2021/06/05 07:18:20;;;;;;;0.20;0.20;;;;;;;-144.31;76.61;73954.09;5009013;28;20049;-73
2021/06/05 07:20:48;;;;;;;0.30;0.30;;;;;;;-144.31;76.91;73924.16;5006554;28;20069;-72
2021/06/05 07:23:14;;;;;;;0.22;0.22;;;;;;;-144.31;77.34;73928.16;5019158;28;20182;-74
2021/06/05 07:25:40;;;;;;;0.22;0.22;;;;;;;-144.31;76.70;73950.13;5010009;28;20117;-72
2021/06/05 07:28:16;;;;;;;0.30;0.30;;;;;;;-144.31;76.50;73956.09;5017661;28;20091;-74
2021/06/05 07:30:42;;;;;;;0.30;0.30;;;;;;;-144.31;76.71;74004.03;5009060;28;20042;-74
2021/06/05 07:33:09;;;;;;;0.38;0.38;;;;;;;-144.31;76.48;73996.03;5005983;28;20027;-74
2021/06/05 07:35:35;;;;;;;0.20;0.20;;;;;;;-144.31;76.18;73994.03;5009095;28;20038;-73
2021/06/05 07:38:01;;;;;;;0.20;0.20;;;;;;;-144.31;76.07;73968.09;4993445;28;20042;-73
2021/06/05 07:40:26;;;;;;;0.30;0.30;;;;;;;-144.31;76.47;73966.09;5010620;28;20978;-74
2021/06/05 07:42:52;;;;;;;0.38;0.38;;;;;;;-144.31;76.52;73928.16;5009570;28;20447;-73
2021/06/05 07:45:20;;;;;;;0.20;0.20;;;;;;;-144.31;77.16;73868.25;5010128;28;20040;-74
2021/06/05 07:47:46;;;;;;;0.28;0.28;;;;;;;-144.31;78.54;73792.41;5010193;28;20060;-74
2021/06/05 07:50:13;;;;;;;0.28;0.20;;;;;;;-144.31;81.60;73732.50;5008628;28;20042;-74
2021/06/05 07:52:39;;;;;;;;;;;;;;;-144.31;85.65;73694.56;5018157;28;20482;-73
2021/06/05 07:55:06;;;;;;;0.20;0.20;;;;;;;-144.31;89.27;73664.63;5010001;28;19957;-74
2021/06/05 07:57:32;;;;;;;0.20;0.20;;;;;;;-144.31;100.00;73602.75;5009270;28;20038;-74
2021/06/05 07:59:58;;;;;;;0.28;0.28;;;;;;;-144.31;100.00;73588.75;5009574;28;20575;-74
2021/06/05 08:02:23;;;;;;;0.20;0.20;;;;;;;-144.31;100.00;73514.91;5010071;28;20088;-73
2021/06/05 08:04:51;;;;;;;0.20;0.20;;;;;;;-144.31;100.00;73514.91;5009694;28;20038;-74
2021/06/05 08:07:21;;;;;;;0.90;0.32;;;;;;;-144.31;100.00;73624.69;5005466;28;20518;-74
2021/06/05 08:09:49;;;;;;;0.25;0.25;;;;;;;-144.31;100.00;73616.72;5004763;28;20034;-72
2021/06/05 08:12:15;;;;;;;0.22;0.22;;;;;;;-144.31;100.00;73654.66;5004190;28;20026;-74
2021/06/05 08:14:40;;;;;;;0.10;0.10;;;;;;;-144.31;100.00;73548.84;5009572;28;20049;-73
2021/06/05 08:17:06;;;;;;;0.30;0.30;;;;;;;-144.31;100.00;73572.78;5009508;28;20064;-74
2021/06/05 08:19:31;;;;;;;0.20;0.20;;;;;;;-144.31;100.00;73574.78;5008798;28;20045;-73
2021/06/05 08:21:57;;;;;;;0.20;0.20;;;;;;;-144.31;100.00;73482.97;5008682;28;20484;-75
2021/06/05 08:24:23;;;;;;;0.20;0.20;;;;;;;-144.31;100.00;73638.66;5005134;28;20056;-74
2021/06/05 08:26:51;;;;;;;0.10;0.10;;;;;;;-144.31;100.00;73542.84;5008493;28;20499;-75
2021/06/05 08:29:16;;;;;;;0.20;0.20;;;;;;;-144.31;100.00;73472.97;5009227;28;20381;-75
2021/06/05 08:31:42;;;;;;;0.20;0.20;;;;;;;-144.31;100.00;73421.06;5016955;28;20088;-72
2021/06/05 08:34:08;;;;;;;0.23;0.20;;;;;;;-144.31;100.00;73429.06;5005741;28;20041;-71
2021/06/05 08:36:35;;;;;;;0.20;0.20;;;;;;;-144.31;100.00;73403.09;5008465;28;20384;-73
2021/06/05 08:39:00;;;;;;;;;;;;;;;-144.31;100.00;73642.66;5008996;28;20038;-72
2021/06/05 08:41:33;;;;;;;0.20;0.20;;;;;;;-144.31;100.00;73468.97;5021428;28;20387;-72
2021/06/05 08:44:07;;;;;;;0.20;0.20;;;;;;;-144.31;100.00;73409.09;5006409;28;20120;-70
2021/06/05 08:46:42;;;;;;;0.10;0.10;;;;;;;-144.31;100.00;73425.06;5019848;28;20129;-73
2021/06/05 08:49:15;;;;;;;0.20;0.20;;;;;;;-144.31;100.00;73538.84;5003698;28;20048;-73
2021/06/05 08:52:05;;;;;;;0.28;0.25;;;;;;;-144.31;100.00;73500.94;5020351;28;20042;-72
2021/06/05 08:54:31;;;;;;;0.30;0.30;;;;;;;-144.31;100.00;73457.00;5000378;28;20095;-73
2021/06/05 08:57:27;;;;;;;0.20;0.20;;;;;;;-144.31;100.00;73480.97;5001457;28;20042;-73
2021/06/05 08:59:55;;;;;;;0.20;0.20;;;;;;;-144.31;100.00;73474.97;5001295;28;20081;-73
2021/06/05 09:02:24;;;;;;;0.20;0.20;;;;;;;-144.31;100.00;73470.97;5020658;28;20080;-72
2021/06/05 09:04:53;;;;;;;0.20;0.20;;;;;;;-144.31;100.00;73468.97;5003861;28;20049;-73
2021/06/05 09:07:19;;;;;;;0.30;0.30;;;;;;;-144.31;100.00;73516.91;5005951;28;20057;-73
2021/06/05 09:09:49;;;;;;;0.55;0.40;;;;;;;-144.31;100.00;73518.91;5004136;28;20053;-71
2021/06/05 09:12:16;;;;;;;0.30;0.30;;;;;;;-144.31;100.00;73554.81;5014315;28;20095;-72
2021/06/05 09:14:45;;;;;;;0.32;0.30;;;;;;;-144.31;100.00;73556.81;5005555;28;20049;-73
2021/06/05 09:22:00;;;;;;;0.30;0.30;;;;;;;-144.31;100.00;73622.69;4998660;28;20068;-72
2021/06/05 09:24:52;;;;;;;0.20;0.20;;;;;;;-144.31;100.00;73586.75;4994722;28;20100;-73
2021/06/05 09:27:17;;;;;;;0.30;0.30;;;;;;;-144.31;100.00;73546.84;5001104;28;20411;-74
2021/06/05 09:29:52;;;;;;;0.28;0.28;;;;;;;-144.31;100.00;73560.81;4999955;28;20033;-73
2021/06/05 09:32:20;;;;;;;0.20;0.20;;;;;;;-144.31;100.00;73556.81;5000487;28;20046;-73
2021/06/05 09:34:57;;;;;;;0.30;0.30;;;;;;;-144.31;100.00;73552.84;4999205;28;20046;-73
2021/06/05 09:37:45;;;;;;;0.20;0.20;;;;;;;-144.31;100.00;73536.84;5002160;28;20046;-74
2021/06/05 09:40:22;;;;;;;0.47;0.30;;;;;;;-144.31;100.00;73670.63;4974300;28;20152;-74
2021/06/05 09:42:57;;;;;;;0.20;0.20;;;;;;;-144.31;100.00;73508.91;5002945;28;20045;-72
2021/06/05 09:45:31;;;;;;;0.20;0.20;;;;;;;-144.31;100.00;73488.94;4998379;28;20038;-74
2021/06/05 09:48:15;;;;;;;0.30;0.30;;;;;;;-144.31;100.00;73457.00;5003989;28;20042;-74
2021/06/05 09:50:46;;;;;;;0.40;0.40;;;;;;;-144.31;100.00;73510.91;5000604;28;20067;-74
2021/06/05 09:53:16;;;;;;;0.40;0.20;;;;;;;-144.31;100.00;73486.94;5002007;28;20049;-77
2021/06/05 10:03:15;;;;;;;0.20;0.20;;;;;;;-144.31;100.00;73385.13;5013845;28;20512;-73
2021/06/05 10:05:43;;;;;;;0.20;0.20;;;;;;;-144.31;100.00;73353.19;5013029;28;20392;-74
2021/06/05 10:08:21;;;;;;;0.20;0.20;;;;;;;-144.31;100.00;73351.22;5003084;28;20042;-73
2021/06/05 10:10:50;;;;;;;0.10;0.10;;;;;;;-144.31;100.00;73383.16;4998778;28;20076;-74
2021/06/05 10:13:25;;;;;;;0.10;0.10;;;;;;;-144.31;100.00;73361.19;5003393;28;20056;-74
2021/06/05 10:15:57;;;;;;;0.20;0.20;;;;;;;-144.31;100.00;73353.19;5007276;28;20046;-74
2021/06/05 10:18:28;;;;;;;0.20;0.20;;;;;;;-144.31;100.00;73275.34;5014847;28;20045;-74
2021/06/05 10:21:12;;;;;;;0.10;0.10;;;;;;;-144.31;100.00;73361.19;5013933;28;20408;-74
2021/06/05 10:23:42;;;;;;;0.15;0.15;;;;;;;-144.31;100.00;73327.25;4989897;28;20049;-75
2021/06/05 10:26:39;;;;;;;0.17;0.17;;;;;;;-144.31;100.00;73375.16;5003790;28;20046;-72
2021/06/05 10:29:17;;;;;;;0.10;0.10;;;;;;;-144.31;100.00;73375.16;4997214;28;20392;-73
2021/06/05 10:31:43;;;;;;;0.20;0.20;;;;;;;-144.31;100.00;73377.16;5005737;28;20420;-74
2021/06/05 10:34:14;;;;;;;0.10;0.10;;;;;;;-144.31;100.00;73385.13;4987673;28;20504;-74
2021/06/05 10:36:49;;;;;;;0.17;0.17;;;;;;;-144.31;100.00;73504.91;5002965;28;20049;-73
2021/06/05 10:39:28;;;;;;;0.17;0.17;;;;;;;-144.31;100.00;73524.88;5023421;28;20066;-74
2021/06/05 10:42:19;;;;;;;0.10;0.10;;;;;;;-144.31;100.00;73534.88;5007273;28;20034;-74
2021/06/05 10:44:45;;;;;;;0.20;0.20;;;;;;;-144.31;100.00;73582.78;5004575;28;20289;-74
2021/06/05 10:47:16;;;;;;;0.17;0.17;;;;;;;-144.31;90.22;73614.72;5007437;28;20140;-73
2021/06/05 10:49:58;;;;;;;0.15;0.15;;;;;;;-144.31;84.18;73692.56;4999583;28;20045;-72
2021/06/05 10:52:39;;;;;;;0.10;0.10;;;;;;;-144.31;82.03;73706.56;5004377;28;20503;-74
2021/06/05 10:55:13;;;;;;;0.20;0.20;;;;;;;-144.31;80.83;73688.59;5003105;28;20050;-71
2021/06/05 10:57:48;;;;;;;0.20;0.20;;;;;;;-144.31;81.84;73628.69;5003072;28;20504;-74
2021/06/05 11:00:41;;;;;;;0.20;0.20;;;;;;;-144.31;83.17;73622.69;5005995;28;20056;-74
2021/06/05 11:03:09;;;;;;;0.20;0.20;;;;;;;-144.31;86.73;73596.75;5004851;28;20140;-72
2021/06/05 11:05:35;;;;;;;0.20;0.20;;;;;;;-144.31;90.82;73546.84;5005206;28;20398;-74
2021/06/05 11:08:10;;;;;;;0.20;0.20;;;;;;;-144.31;100.00;73542.84;5019324;28;89092;-74
2021/06/05 11:10:51;;;;;;;0.20;0.20;;;;;;;-144.31;100.00;73548.84;5010036;28;20419;-73
2021/06/05 11:13:35;;;;;;;0.28;0.28;;;;;;;-144.31;100.00;73522.88;4989056;28;20042;-74
2021/06/05 11:16:06;;;;;;;0.20;0.20;;;;;;;-144.31;100.00;73538.84;5003039;28;20037;-71
2021/06/05 11:18:41;;;;;;;0.20;0.20;;;;;;;-144.31;100.00;73564.81;5006881;28;20068;-73
2021/06/05 11:21:19;;;;;;;0.20;0.20;;;;;;;-144.31;100.00;73574.78;5003433;28;20042;-74
2021/06/05 11:24:14;;;;;;;0.25;0.25;;;;;;;-144.31;100.00;73600.75;5008237;28;20061;-74
2021/06/05 11:26:46;;;;;;;0.30;0.30;;;;;;;-144.31;100.00;73612.72;4997099;28;20065;-74
2021/06/05 11:29:20;;;;;;;0.52;0.30;;;;;;;-144.31;100.00;73618.72;5008577;28;20050;-74
2021/06/05 11:31:55;;;;;;;0.25;0.25;;;;;;;-144.31;100.00;73644.66;5008270;28;20052;-74
2021/06/05 11:34:29;;;;;;;0.30;0.30;;;;;;;-144.31;100.00;73666.63;5004922;28;20045;-74
2021/06/05 11:37:14;;;;;;;0.20;0.20;;;;;;;-144.31;97.08;73660.63;5008145;28;20081;-74
2021/06/05 11:39:45;;;;;;;0.20;0.20;;;;;;;-144.31;100.00;73656.63;5005865;28;20431;-74
2021/06/05 11:42:20;;;;;;;0.20;0.20;;;;;;;-144.31;100.00;73648.66;5004248;28;20077;-74